Time;durP1;ratioP1;P1;durP2;ratioP2;P2;SDS_P1;SDS_P2;PMS_P1;PMS_P2;Temp;Humidity;BMP_temperature;BMP_pressure;BME280_temperature;BME280_humidity;BME280_pressure;Samples;Min_cycle;Max_cycle;Signal;HPM_P1;HPM_P2
2022/04/04 00:00:14;;;;;;;;;;;4.20;99.90;;;;;;2056798;28;19914;-67
2022/04/04 00:01:15;;;;;;;;;;;4.20;99.90;;;;;;2055207;28;19964;-67
2022/04/04 00:02:15;;;;;;;;;;;4.20;99.90;;;;;;2063269;28;20340;-67
2022/04/04 00:03:16;;;;;;;;;;;4.20;99.90;;;;;;2063232;28;19910;-67
2022/04/04 00:04:16;;;;;;;;;;;4.20;99.90;;;;;;2056244;28;20362;-67
2022/04/04 00:05:17;;;;;;;;;;;4.20;99.90;;;;;;2057356;28;19910;-67
2022/04/04 00:06:17;;;;;;;;;;;4.20;99.90;;;;;;2057689;28;19956;-67
2022/04/04 00:07:18;;;;;;;;;;;4.10;99.90;;;;;;2056841;28;20365;-67
2022/04/04 00:08:18;;;;;;;;;;;4.10;99.90;;;;;;2056174;28;19906;-67
2022/04/04 00:09:19;;;;;;;;;;;4.10;99.90;;;;;;2056191;28;19913;-67
2022/04/04 00:10:19;;;;;;;;;;;4.10;99.90;;;;;;2059566;28;19906;-67
2022/04/04 00:11:20;;;;;;;;;;;4.10;99.90;;;;;;2058680;28;20060;-67
2022/04/04 00:12:21;;;;;;;;;;;4.10;99.90;;;;;;2058445;28;20391;-67
2022/04/04 00:13:21;;;;;;;;;;;4.10;99.90;;;;;;2056307;28;19916;-67
2022/04/04 00:14:22;;;;;;;;;;;4.10;99.90;;;;;;2056880;28;20022;-67
2022/04/04 00:15:22;;;;;;;;;;;4.10;99.90;;;;;;2056407;28;19910;-67
2022/04/04 00:16:23;;;;;;;;;;;4.10;99.90;;;;;;2056002;28;19952;-67
2022/04/04 00:17:23;;;;;;;;;;;4.10;99.90;;;;;;2057165;28;19910;-67
2022/04/04 00:18:23;;;;;;;;;;;4.10;99.90;;;;;;2058946;28;19934;-67
2022/04/04 00:19:24;;;;;;;;;;;4.10;99.90;;;;;;2058806;28;19910;-67
2022/04/04 00:20:25;;;;;;;;;;;4.10;99.90;;;;;;2058376;28;19910;-67
2022/04/04 00:21:26;;;;;;;;;;;4.10;99.90;;;;;;2057807;28;19992;-67
2022/04/04 00:22:26;;;;;;;;;;;4.10;99.90;;;;;;2056219;28;19914;-67
2022/04/04 00:23:27;;;;;;;;;;;4.10;99.90;;;;;;2056479;28;19914;-67
2022/04/04 00:24:27;;;;;;;;;;;4.10;99.90;;;;;;2057470;28;20316;-67
2022/04/04 00:25:29;;;;;;;;;;;4.10;99.90;;;;;;2058581;28;19918;-67
2022/04/04 00:26:29;;;;;;;;;;;4.10;99.90;;;;;;2057561;28;19941;-67
2022/04/04 00:27:30;;;;;;;;;;;4.10;99.90;;;;;;2058703;28;19917;-67
2022/04/04 00:28:31;;;;;;;;;;;4.10;99.90;;;;;;2058058;28;19906;-67
2022/04/04 00:29:31;;;;;;;;;;;4.10;99.90;;;;;;2057249;28;19914;-67
2022/04/04 00:30:32;;;;;;;;;;;4.10;99.90;;;;;;2055880;28;20345;-67
2022/04/04 00:31:32;;;;;;;;;;;4.10;99.90;;;;;;2055952;28;20352;-67
2022/04/04 00:32:33;;;;;;;;;;;4.00;99.90;;;;;;2057620;28;19918;-67
2022/04/04 00:33:34;;;;;;;;;;;4.00;99.90;;;;;;2059010;28;19914;-67
2022/04/04 00:34:34;;;;;;;;;;;4.00;99.90;;;;;;2058369;28;19910;-67
2022/04/04 00:35:35;;;;;;;;;;;4.00;99.90;;;;;;2057997;28;19910;-67
2022/04/04 00:36:38;;;;;;;;;;;4.00;99.90;;;;;;2057556;28;19909;-67
2022/04/04 00:37:38;;;;;;;;;;;4.00;99.90;;;;;;2057218;28;20397;-67
2022/04/04 00:38:39;;;;;;;;;;;4.00;99.90;;;;;;2056531;28;19925;-67
2022/04/04 00:39:39;;;;;;;;;;;4.00;99.90;;;;;;2056337;28;20420;-67
2022/04/04 00:40:41;;;;;;;;;;;4.00;99.90;;;;;;2058913;28;19924;-67
2022/04/04 00:41:43;;;;;;;;;;;4.00;99.90;;;;;;2058860;28;19956;-67
2022/04/04 00:42:43;;;;;;;;;;;4.00;99.90;;;;;;2058206;28;20680;-67
2022/04/04 00:43:44;;;;;;;;;;;4.00;99.90;;;;;;2058091;28;20250;-67
2022/04/04 00:44:45;;;;;;;;;;;4.00;99.90;;;;;;2058548;28;20284;-67
2022/04/04 00:45:46;;;;;;;;;;;4.00;99.90;;;;;;2058296;28;19910;-67
2022/04/04 00:46:46;;;;;;;;;;;4.00;99.90;;;;;;2058193;28;20361;-67
2022/04/04 00:47:47;;;;;;;;;;;4.00;99.90;;;;;;2057056;28;19913;-67
2022/04/04 00:48:48;;;;;;;;;;;4.00;99.90;;;;;;2064232;28;20024;-67
2022/04/04 00:49:48;;;;;;;;;;;4.00;99.90;;;;;;2064649;28;19917;-67
2022/04/04 00:50:49;;;;;;;;;;;4.00;99.90;;;;;;2056956;28;19993;-67
2022/04/04 00:51:49;;;;;;;;;;;3.90;99.90;;;;;;2057199;28;19957;-67
2022/04/04 00:52:51;;;;;;;;;;;4.00;99.90;;;;;;2059015;28;19906;-67
2022/04/04 00:53:51;;;;;;;;;;;4.00;99.90;;;;;;2058579;28;19906;-67
2022/04/04 00:54:52;;;;;;;;;;;3.90;99.90;;;;;;2058467;28;20008;-67
2022/04/04 00:55:53;;;;;;;;;;;3.90;99.90;;;;;;2056389;28;19957;-67
2022/04/04 00:56:55;;;;;;;;;;;3.90;99.90;;;;;;2060225;28;19910;-67
2022/04/04 00:57:56;;;;;;;;;;;3.90;99.90;;;;;;2060477;28;19925;-67
2022/04/04 00:58:56;;;;;;;;;;;3.90;99.90;;;;;;2059627;28;19910;-67
2022/04/04 00:59:57;;;;;;;;;;;3.90;99.90;;;;;;2057456;28;19961;-67
2022/04/04 01:00:58;;;;;;;;;;;3.90;99.90;;;;;;2059306;28;19910;-67
2022/04/04 01:01:59;;;;;;;;;;;3.90;99.90;;;;;;2058157;28;19906;-67
2022/04/04 01:02:59;;;;;;;;;;;3.90;99.90;;;;;;2058053;28;19913;-67
2022/04/04 01:04:00;;;;;;;;;;;3.90;99.90;;;;;;2057474;28;20389;-67
2022/04/04 01:05:00;;;;;;;;;;;3.90;99.90;;;;;;2060533;28;19960;-67
2022/04/04 01:06:02;;;;;;;;;;;3.90;99.90;;;;;;2058831;28;19910;-67
2022/04/04 01:07:03;;;;;;;;;;;3.90;99.90;;;;;;2059940;28;19906;-67
2022/04/04 01:08:04;;;;;;;;;;;3.90;99.90;;;;;;2057360;28;19938;-67
2022/04/04 01:09:04;;;;;;;;;;;3.90;99.90;;;;;;2059023;28;19941;-67
2022/04/04 01:10:06;;;;;;;;;;;3.90;99.90;;;;;;2058156;28;19906;-67
2022/04/04 01:11:08;;;;;;;;;;;3.90;99.90;;;;;;2058074;28;20395;-67
2022/04/04 01:12:11;;;;;;;;;;;3.90;99.90;;;;;;2057174;28;19976;-67
2022/04/04 01:13:12;;;;;;;;;;;3.90;99.90;;;;;;2058127;28;19906;-67
2022/04/04 01:14:12;;;;;;;;;;;3.90;99.90;;;;;;2059985;28;20383;-67
2022/04/04 01:15:13;;;;;;;;;;;3.90;99.90;;;;;;2059383;28;19910;-67
2022/04/04 01:16:13;;;;;;;;;;;3.90;99.90;;;;;;2059246;28;20317;-67
2022/04/04 01:17:15;;;;;;;;;;;3.90;99.90;;;;;;2059183;28;19917;-67
2022/04/04 01:18:15;;;;;;;;;;;3.90;99.90;;;;;;2057944;28;19956;-67
2022/04/04 01:19:16;;;;;;;;;;;3.90;99.90;;;;;;2057853;28;19914;-67
2022/04/04 01:20:16;;;;;;;;;;;3.90;99.90;;;;;;2056766;28;19910;-67
2022/04/04 01:21:18;;;;;;;;;;;3.90;99.90;;;;;;2058639;28;19910;-67
2022/04/04 01:22:19;;;;;;;;;;;3.90;99.90;;;;;;2059816;28;19917;-67
2022/04/04 01:23:23;;;;;;;;;;;3.90;99.90;;;;;;2059795;28;19906;-67
2022/04/04 01:24:24;;;;;;;;;;;3.90;99.90;;;;;;2066405;28;20385;-67
2022/04/04 01:25:29;;;;;;;;;;;3.90;99.90;;;;;;2064773;28;19936;-67
2022/04/04 01:26:29;;;;;;;;;;;3.90;99.90;;;;;;2057587;28;20493;-67
2022/04/04 01:27:30;;;;;;;;;;;3.90;99.90;;;;;;2057027;28;20612;-67
2022/04/04 01:28:30;;;;;;;;;;;3.90;99.90;;;;;;2058781;28;19910;-67
2022/04/04 01:29:31;;;;;;;;;;;3.90;99.90;;;;;;2059353;28;20009;-67
2022/04/04 01:30:32;;;;;;;;;;;3.90;99.90;;;;;;2059728;28;19914;-67
2022/04/04 01:31:32;;;;;;;;;;;3.90;99.90;;;;;;2059263;28;19906;-67
2022/04/04 01:32:34;;;;;;;;;;;3.90;99.90;;;;;;2058277;28;19917;-67
2022/04/04 01:33:35;;;;;;;;;;;3.90;99.90;;;;;;2058255;28;19905;-67
2022/04/04 01:34:35;;;;;;;;;;;3.90;99.90;;;;;;2057898;28;19906;-67
2022/04/04 01:35:38;;;;;;;;;;;3.90;99.90;;;;;;2056614;28;20672;-67
2022/04/04 01:36:38;;;;;;;;;;;3.90;99.90;;;;;;2060306;28;20242;-68
2022/04/04 01:37:39;;;;;;;;;;;3.80;99.90;;;;;;2059456;28;19928;-67
2022/04/04 01:38:39;;;;;;;;;;;3.90;99.90;;;;;;2058729;28;20448;-67
2022/04/04 01:39:40;;;;;;;;;;;3.90;99.90;;;;;;2058432;28;20379;-67
2022/04/04 01:40:40;;;;;;;;;;;3.90;99.90;;;;;;2051792;28;19950;-67
2022/04/04 01:41:41;;;;;;;;;;;3.90;99.90;;;;;;2057188;28;19917;-67
2022/04/04 01:42:45;;;;;;;;;;;3.90;99.90;;;;;;2056756;28;19986;-67
2022/04/04 01:43:46;;;;;;;;;;;3.90;99.90;;;;;;2056744;28;19918;-67
2022/04/04 01:44:47;;;;;;;;;;;3.90;99.90;;;;;;2060116;28;19997;-67
2022/04/04 01:47:07;;;;;;;;;;;3.90;99.90;;;;;;2055979;28;19910;-67
2022/04/04 01:48:10;;;;;;;;;;;3.90;99.90;;;;;;2058899;28;19910;-67
2022/04/04 01:49:11;;;;;;;;;;;3.90;99.90;;;;;;2058275;28;19906;-67
2022/04/04 01:50:11;;;;;;;;;;;3.90;99.90;;;;;;2057777;28;20379;-67
2022/04/04 01:51:12;;;;;;;;;;;3.90;99.90;;;;;;2056686;28;19965;-67
2022/04/04 01:52:12;;;;;;;;;;;3.90;99.90;;;;;;2060750;28;20380;-67
2022/04/04 01:53:29;;;;;;;;;;;3.90;99.90;;;;;;2059616;28;20389;-67
2022/04/04 01:54:29;;;;;;;;;;;3.90;99.90;;;;;;2057449;28;19910;-67
2022/04/04 01:55:30;;;;;;;;;;;3.90;99.90;;;;;;2057658;28;19941;-67
2022/04/04 01:56:31;;;;;;;;;;;3.90;99.90;;;;;;2058235;28;20398;-67
2022/04/04 01:57:33;;;;;;;;;;;3.90;99.90;;;;;;2057771;28;20009;-67
2022/04/04 01:58:34;;;;;;;;;;;3.90;99.90;;;;;;2057301;28;20326;-67
2022/04/04 01:59:34;;;;;;;;;;;3.90;99.90;;;;;;2057226;28;19929;-67
2022/04/04 02:00:34;;;;;;;;;;;3.90;99.90;;;;;;2057079;28;20388;-67
2022/04/04 02:01:35;;;;;;;;;;;3.90;99.90;;;;;;2059150;28;19989;-67
2022/04/04 02:02:36;;;;;;;;;;;3.90;99.90;;;;;;2059558;28;19906;-67
2022/04/04 02:03:36;;;;;;;;;;;3.90;99.90;;;;;;2058521;28;20013;-67
2022/04/04 02:04:37;;;;;;;;;;;3.90;99.90;;;;;;2058477;28;19916;-67
2022/04/04 02:05:37;;;;;;;;;;;3.90;99.90;;;;;;2056935;28;19920;-67
2022/04/04 02:06:39;;;;;;;;;;;3.90;99.90;;;;;;2057327;28;19910;-67
2022/04/04 02:07:39;;;;;;;;;;;3.90;99.90;;;;;;2058337;28;19909;-67
2022/04/04 02:08:44;;;;;;;;;;;3.90;99.90;;;;;;2060212;28;19956;-67
2022/04/04 02:09:44;;;;;;;;;;;3.90;99.90;;;;;;2059291;28;19909;-67
2022/04/04 02:10:44;;;;;;;;;;;3.90;99.90;;;;;;2058246;28;19906;-67
2022/04/04 02:11:45;;;;;;;;;;;3.90;99.90;;;;;;2058241;28;19913;-67
2022/04/04 02:12:46;;;;;;;;;;;3.90;99.90;;;;;;2057855;28;20268;-67
2022/04/04 02:13:46;;;;;;;;;;;3.90;99.90;;;;;;2057549;28;19950;-67
2022/04/04 02:14:47;;;;;;;;;;;3.90;99.90;;;;;;2057079;28;19910;-67
2022/04/04 02:15:48;;;;;;;;;;;3.90;99.90;;;;;;2058774;28;19905;-67
2022/04/04 02:16:48;;;;;;;;;;;3.90;99.90;;;;;;2060081;28;19917;-67
2022/04/04 02:17:50;;;;;;;;;;;3.90;99.90;;;;;;2059268;28;19916;-67
2022/04/04 02:18:51;;;;;;;;;;;3.90;99.90;;;;;;2058920;28;19909;-67
2022/04/04 02:19:51;;;;;;;;;;;3.90;99.90;;;;;;2058251;28;19906;-67
2022/04/04 02:20:52;;;;;;;;;;;3.90;99.90;;;;;;2057733;28;19961;-67
2022/04/04 02:21:52;;;;;;;;;;;3.80;99.90;;;;;;2057507;28;20361;-67
2022/04/04 02:22:53;;;;;;;;;;;3.80;99.90;;;;;;2056819;28;20321;-67
2022/04/04 02:23:53;;;;;;;;;;;3.80;99.90;;;;;;2060332;28;20301;-67
2022/04/04 02:24:53;;;;;;;;;;;3.80;99.90;;;;;;2059854;28;20541;-67
2022/04/04 02:25:58;;;;;;;;;;;3.80;99.90;;;;;;2056970;28;20391;-67
2022/04/04 02:26:58;;;;;;;;;;;3.80;99.90;;;;;;2058557;28;20020;-67
2022/04/04 02:27:59;;;;;;;;;;;3.80;99.90;;;;;;2058526;28;19906;-67
2022/04/04 02:28:59;;;;;;;;;;;3.80;99.90;;;;;;2057585;28;19945;-67
2022/04/04 02:30:00;;;;;;;;;;;3.80;99.90;;;;;;2057631;28;19906;-67
2022/04/04 02:31:00;;;;;;;;;;;3.80;99.90;;;;;;2056426;28;19917;-67
2022/04/04 02:32:02;;;;;;;;;;;3.80;99.90;;;;;;2060108;28;19913;-67
2022/04/04 02:33:03;;;;;;;;;;;3.80;99.90;;;;;;2059624;28;19997;-67
2022/04/04 02:34:03;;;;;;;;;;;3.80;99.90;;;;;;2058368;28;19917;-67
2022/04/04 02:35:04;;;;;;;;;;;3.80;99.90;;;;;;2057013;28;20341;-67
2022/04/04 02:36:04;;;;;;;;;;;3.80;99.90;;;;;;2057707;28;20277;-67
2022/04/04 02:37:05;;;;;;;;;;;3.80;99.90;;;;;;2057269;28;19909;-67
2022/04/04 02:38:06;;;;;;;;;;;3.80;99.90;;;;;;2057219;28;20009;-67
2022/04/04 02:39:06;;;;;;;;;;;3.80;99.90;;;;;;2056697;28;19910;-67
2022/04/04 02:40:07;;;;;;;;;;;3.80;99.90;;;;;;2060190;28;20281;-67
2022/04/04 02:41:08;;;;;;;;;;;3.80;99.90;;;;;;2058551;28;19918;-67
2022/04/04 02:42:08;;;;;;;;;;;3.80;99.90;;;;;;2059040;28;20513;-67
2022/04/04 02:43:09;;;;;;;;;;;3.80;99.90;;;;;;2058577;28;19953;-67
2022/04/04 02:44:09;;;;;;;;;;;3.80;99.90;;;;;;2058091;28;19909;-67
2022/04/04 02:45:10;;;;;;;;;;;3.80;99.90;;;;;;2057106;28;19922;-67
2022/04/04 02:46:12;;;;;;;;;;;3.80;99.90;;;;;;2057109;28;20036;-67
2022/04/04 02:47:12;;;;;;;;;;;3.80;99.90;;;;;;2056612;28;19906;-67
2022/04/04 02:48:15;;;;;;;;;;;3.80;99.90;;;;;;2060112;28;19906;-67
2022/04/04 02:49:15;;;;;;;;;;;3.80;99.90;;;;;;2059393;28;20277;-67
2022/04/04 02:50:16;;;;;;;;;;;3.80;99.90;;;;;;2058250;28;19905;-67
2022/04/04 02:51:17;;;;;;;;;;;3.80;99.90;;;;;;2056437;28;20397;-67
2022/04/04 02:52:17;;;;;;;;;;;3.80;99.90;;;;;;2056843;28;20285;-67
2022/04/04 02:53:18;;;;;;;;;;;3.90;99.90;;;;;;2057551;28;19906;-67
2022/04/04 02:54:18;;;;;;;;;;;3.90;99.90;;;;;;2057049;28;19906;-67
2022/04/04 02:56:41;;;;;;;;;;;3.90;99.90;;;;;;2058330;28;19905;-67
2022/04/04 02:57:42;;;;;;;;;;;3.90;99.90;;;;;;2056969;28;19996;-67
2022/04/04 02:58:42;;;;;;;;;;;3.90;99.90;;;;;;2058575;28;19906;-67
2022/04/04 02:59:43;;;;;;;;;;;3.90;99.90;;;;;;2057089;28;20565;-67
2022/04/04 03:00:45;;;;;;;;;;;3.90;99.90;;;;;;2057236;28;20293;-67
2022/04/04 03:01:48;;;;;;;;;;;3.90;99.90;;;;;;2056800;28;19993;-67
2022/04/04 03:02:49;;;;;;;;;;;3.90;99.90;;;;;;2053162;28;19906;-67
2022/04/04 03:03:49;;;;;;;;;;;3.90;99.90;;;;;;2059762;28;20361;-67
2022/04/04 03:04:50;;;;;;;;;;;3.90;99.90;;;;;;2059593;28;19944;-67
2022/04/04 03:05:50;;;;;;;;;;;3.90;99.90;;;;;;2057993;28;19906;-67
2022/04/04 03:06:51;;;;;;;;;;;3.90;99.90;;;;;;2057838;28;20342;-67
2022/04/04 03:07:51;;;;;;;;;;;3.90;99.90;;;;;;2057349;28;19906;-67
2022/04/04 03:08:52;;;;;;;;;;;3.90;99.90;;;;;;2057433;28;19933;-67
2022/04/04 03:09:52;;;;;;;;;;;3.90;99.90;;;;;;2056849;28;20392;-67
2022/04/04 03:10:53;;;;;;;;;;;4.00;99.90;;;;;;2058975;28;19948;-67
2022/04/04 03:11:53;;;;;;;;;;;3.90;99.90;;;;;;2059730;28;19968;-67
2022/04/04 03:12:54;;;;;;;;;;;4.00;99.90;;;;;;2056419;28;20281;-67
2022/04/04 03:13:54;;;;;;;;;;;3.90;99.90;;;;;;2059027;28;19928;-67
2022/04/04 03:14:55;;;;;;;;;;;4.00;99.90;;;;;;2065112;28;19957;-67
2022/04/04 03:15:56;;;;;;;;;;;4.00;99.90;;;;;;2064822;28;19989;-67
2022/04/04 03:16:56;;;;;;;;;;;4.00;99.90;;;;;;2056978;28;19906;-67
2022/04/04 03:17:57;;;;;;;;;;;4.00;99.90;;;;;;2056742;28;19917;-67
2022/04/04 03:18:59;;;;;;;;;;;4.00;99.90;;;;;;2059849;28;19949;-67
2022/04/04 03:20:00;;;;;;;;;;;4.00;99.90;;;;;;2059705;28;19984;-67
2022/04/04 03:21:00;;;;;;;;;;;4.10;99.90;;;;;;2057117;28;20440;-67
2022/04/04 03:22:01;;;;;;;;;;;4.10;99.90;;;;;;2058891;28;19913;-67
2022/04/04 03:23:02;;;;;;;;;;;4.00;99.90;;;;;;2057412;28;19945;-67
2022/04/04 03:24:02;;;;;;;;;;;4.10;99.90;;;;;;2057731;28;20270;-67
2022/04/04 03:25:03;;;;;;;;;;;4.10;99.90;;;;;;2057106;28;19906;-67
2022/04/04 03:26:03;;;;;;;;;;;4.10;99.90;;;;;;2055867;28;19961;-67
2022/04/04 03:27:04;;;;;;;;;;;4.10;99.90;;;;;;2059731;28;19916;-67
2022/04/04 03:28:04;;;;;;;;;;;4.10;99.90;;;;;;2059446;28;20056;-67
2022/04/04 03:29:05;;;;;;;;;;;4.10;99.90;;;;;;2058157;28;19906;-67
2022/04/04 03:30:07;;;;;;;;;;;4.10;99.90;;;;;;2058604;28;19909;-67
2022/04/04 03:31:08;;;;;;;;;;;4.10;99.90;;;;;;2057785;28;19925;-67
2022/04/04 03:32:08;;;;;;;;;;;4.20;99.90;;;;;;2057265;28;19914;-67
2022/04/04 03:33:09;;;;;;;;;;;4.20;99.90;;;;;;2057102;28;19965;-67
2022/04/04 03:34:09;;;;;;;;;;;4.20;99.90;;;;;;2056749;28;19920;-67
2022/04/04 03:35:10;;;;;;;;;;;4.20;99.90;;;;;;2059097;28;19953;-67
2022/04/04 03:36:10;;;;;;;;;;;4.20;99.90;;;;;;2059609;28;19910;-67
2022/04/04 03:37:11;;;;;;;;;;;4.20;99.90;;;;;;2058762;28;19979;-67
2022/04/04 03:38:13;;;;;;;;;;;4.20;99.90;;;;;;2056137;28;19933;-67
2022/04/04 03:39:16;;;;;;;;;;;4.20;99.90;;;;;;2057482;28;20017;-67
2022/04/04 03:40:19;;;;;;;;;;;4.20;99.90;;;;;;2056378;28;19938;-67
2022/04/04 03:41:19;;;;;;;;;;;4.20;99.90;;;;;;2055982;28;19914;-67
2022/04/04 03:42:20;;;;;;;;;;;4.20;99.90;;;;;;2056770;28;19906;-67
2022/04/04 03:43:21;;;;;;;;;;;4.20;99.90;;;;;;2059523;28;19917;-67
2022/04/04 03:44:21;;;;;;;;;;;4.20;99.90;;;;;;2059543;28;19913;-67
2022/04/04 03:45:22;;;;;;;;;;;4.20;99.90;;;;;;2058006;28;19917;-67
2022/04/04 03:46:22;;;;;;;;;;;4.20;99.90;;;;;;2057887;28;20530;-67
2022/04/04 03:47:22;;;;;;;;;;;4.20;99.90;;;;;;2056883;28;20021;-67
2022/04/04 03:48:23;;;;;;;;;;;4.20;99.90;;;;;;2056999;28;19906;-67
2022/04/04 03:49:24;;;;;;;;;;;4.20;99.90;;;;;;2056559;28;19961;-67
2022/04/04 03:50:26;;;;;;;;;;;4.20;99.90;;;;;;2056395;28;19914;-67
2022/04/04 03:51:26;;;;;;;;;;;4.20;99.90;;;;;;2059305;28;19917;-67
2022/04/04 03:52:27;;;;;;;;;;;4.20;99.90;;;;;;2058932;28;20448;-67
2022/04/04 03:53:27;;;;;;;;;;;4.20;99.90;;;;;;2058745;28;19914;-67
2022/04/04 03:54:28;;;;;;;;;;;4.20;99.90;;;;;;2057506;28;19906;-67
2022/04/04 03:55:30;;;;;;;;;;;4.20;99.90;;;;;;2053336;28;19909;-67
2022/04/04 03:56:30;;;;;;;;;;;4.20;99.90;;;;;;2056336;28;19928;-67
2022/04/04 03:57:31;;;;;;;;;;;4.20;99.90;;;;;;2056323;28;19905;-67
2022/04/04 03:58:31;;;;;;;;;;;4.20;99.90;;;;;;2057808;28;19953;-67
2022/04/04 03:59:32;;;;;;;;;;;4.20;99.90;;;;;;2058574;28;19913;-67
2022/04/04 04:00:32;;;;;;;;;;;4.20;99.90;;;;;;2058081;28;19945;-67
2022/04/04 04:01:32;;;;;;;;;;;4.20;99.90;;;;;;2058315;28;19947;-67
2022/04/04 04:02:34;;;;;;;;;;;4.20;99.90;;;;;;2057482;28;19968;-67
2022/04/04 04:03:36;;;;;;;;;;;4.20;99.90;;;;;;2057210;28;20281;-67
2022/04/04 04:04:37;;;;;;;;;;;4.20;99.90;;;;;;2056496;28;19914;-67
2022/04/04 04:05:37;;;;;;;;;;;4.20;99.90;;;;;;2055837;28;19943;-67
2022/04/04 04:06:38;;;;;;;;;;;4.20;99.90;;;;;;2059098;28;19906;-67
2022/04/04 04:07:39;;;;;;;;;;;4.20;99.90;;;;;;2058151;28;19906;-67
2022/04/04 04:08:41;;;;;;;;;;;4.20;99.90;;;;;;2058381;28;19913;-67
2022/04/04 04:09:44;;;;;;;;;;;4.30;99.90;;;;;;2058188;28;19920;-67
2022/04/04 04:10:45;;;;;;;;;;;4.20;99.90;;;;;;2057515;28;19905;-67
2022/04/04 04:11:45;;;;;;;;;;;4.30;99.90;;;;;;2057020;28;19964;-67
2022/04/04 04:12:46;;;;;;;;;;;4.30;99.90;;;;;;2063758;28;19906;-67
2022/04/04 04:13:47;;;;;;;;;;;4.30;99.90;;;;;;2063713;28;19910;-67
2022/04/04 04:14:48;;;;;;;;;;;4.30;99.90;;;;;;2059174;28;19913;-67
2022/04/04 04:15:49;;;;;;;;;;;4.30;99.90;;;;;;2058060;28;19906;-67
2022/04/04 04:16:50;;;;;;;;;;;4.30;99.90;;;;;;2058411;28;19909;-67
2022/04/04 04:17:52;;;;;;;;;;;4.20;99.90;;;;;;2057886;28;19996;-67
2022/04/04 04:18:52;;;;;;;;;;;4.30;99.90;;;;;;2057169;28;19910;-67
2022/04/04 04:21:12;;;;;;;;;;;4.30;99.90;;;;;;2056310;28;19910;-67
2022/04/04 04:22:13;;;;;;;;;;;4.30;99.90;;;;;;2059873;28;19906;-67
2022/04/04 04:23:14;;;;;;;;;;;4.30;99.90;;;;;;2058769;28;20069;-67
2022/04/04 04:24:14;;;;;;;;;;;4.30;99.90;;;;;;2058913;28;19949;-67
2022/04/04 04:25:15;;;;;;;;;;;4.30;99.90;;;;;;2057654;28;19916;-67
2022/04/04 04:26:15;;;;;;;;;;;4.30;99.90;;;;;;2056737;28;19906;-67
2022/04/04 04:27:16;;;;;;;;;;;4.30;99.90;;;;;;2057371;28;20810;-67
2022/04/04 04:28:18;;;;;;;;;;;4.30;99.90;;;;;;2056106;28;19913;-67
2022/04/04 04:29:18;;;;;;;;;;;4.30;99.90;;;;;;2056161;28;20019;-67
2022/04/04 04:30:19;;;;;;;;;;;4.30;99.90;;;;;;2060103;28;19927;-67
2022/04/04 04:31:20;;;;;;;;;;;4.30;99.90;;;;;;2059052;28;19917;-67
2022/04/04 04:32:21;;;;;;;;;;;4.30;99.90;;;;;;2058585;28;19918;-67
2022/04/04 04:33:22;;;;;;;;;;;4.30;99.90;;;;;;2058083;28;19910;-67
2022/04/04 04:34:22;;;;;;;;;;;4.30;99.90;;;;;;2057638;28;19906;-67
2022/04/04 04:35:23;;;;;;;;;;;4.40;99.90;;;;;;2056620;28;19906;-67
2022/04/04 04:36:24;;;;;;;;;;;4.30;99.90;;;;;;2056467;28;20563;-67
2022/04/04 04:37:24;;;;;;;;;;;4.30;99.90;;;;;;2056948;28;20298;-67
2022/04/04 04:38:25;;;;;;;;;;;4.30;99.90;;;;;;2058747;28;20391;-67
2022/04/04 04:39:26;;;;;;;;;;;4.30;99.90;;;;;;2055891;28;19952;-67
2022/04/04 04:40:27;;;;;;;;;;;4.30;99.90;;;;;;2055886;28;19909;-67
2022/04/04 04:41:28;;;;;;;;;;;4.30;99.90;;;;;;2055800;28;20000;-67
2022/04/04 04:42:29;;;;;;;;;;;4.40;99.90;;;;;;2055685;28;20377;-67
2022/04/04 04:43:30;;;;;;;;;;;4.40;99.90;;;;;;2055885;28;19906;-67
2022/04/04 04:44:30;;;;;;;;;;;4.40;99.90;;;;;;2055494;28;19949;-67
2022/04/04 04:45:31;;;;;;;;;;;4.30;99.90;;;;;;2057518;28;20350;-67
2022/04/04 04:46:33;;;;;;;;;;;4.40;99.90;;;;;;2058569;28;20004;-67
2022/04/04 04:47:34;;;;;;;;;;;4.40;99.90;;;;;;2058321;28;19910;-67
2022/04/04 04:48:35;;;;;;;;;;;4.30;99.90;;;;;;2058004;28;19913;-67
2022/04/04 04:49:35;;;;;;;;;;;4.40;99.90;;;;;;2055735;28;20445;-67
2022/04/04 04:50:36;;;;;;;;;;;4.40;99.90;;;;;;2056998;28;19906;-67
2022/04/04 04:51:36;;;;;;;;;;;4.40;99.90;;;;;;2056395;28;20288;-67
2022/04/04 04:52:37;;;;;;;;;;;4.40;99.90;;;;;;2055677;28;19910;-67
2022/04/04 04:53:38;;;;;;;;;;;4.40;99.90;;;;;;2058880;28;19909;-67
2022/04/04 04:54:38;;;;;;;;;;;4.40;99.90;;;;;;2058624;28;19917;-67
2022/04/04 04:55:39;;;;;;;;;;;4.40;99.90;;;;;;2058032;28;19909;-67
2022/04/04 04:56:39;;;;;;;;;;;4.40;99.90;;;;;;2057888;28;20379;-67
2022/04/04 04:57:40;;;;;;;;;;;4.40;99.90;;;;;;2057717;28;19913;-67
2022/04/04 04:58:41;;;;;;;;;;;4.40;99.90;;;;;;2056781;28;19909;-67
2022/04/04 04:59:41;;;;;;;;;;;4.40;99.90;;;;;;2056152;28;20012;-67
2022/04/04 05:00:42;;;;;;;;;;;4.40;99.90;;;;;;2056130;28;20381;-67
2022/04/04 05:01:42;;;;;;;;;;;4.40;99.90;;;;;;2059299;28;19944;-67
2022/04/04 05:02:42;;;;;;;;;;;4.40;99.90;;;;;;2058820;28;20484;-67
2022/04/04 05:03:43;;;;;;;;;;;4.40;99.90;;;;;;2058414;28;19913;-67
2022/04/04 05:04:43;;;;;;;;;;;4.40;99.90;;;;;;2056019;28;19906;-67
2022/04/04 05:05:44;;;;;;;;;;;4.40;99.90;;;;;;2057050;28;20008;-67
2022/04/04 05:06:49;;;;;;;;;;;4.40;99.90;;;;;;2056832;28;20022;-67
2022/04/04 05:07:49;;;;;;;;;;;4.40;99.90;;;;;;2056585;28;20448;-67
2022/04/04 05:08:50;;;;;;;;;;;4.40;99.90;;;;;;2055615;28;19914;-67
2022/04/04 05:09:50;;;;;;;;;;;4.40;99.90;;;;;;2059301;28;19914;-67
2022/04/04 05:10:52;;;;;;;;;;;4.40;99.90;;;;;;2058788;28;19910;-67
2022/04/04 05:11:53;;;;;;;;;;;4.40;99.90;;;;;;2058614;28;19995;-67
2022/04/04 05:12:54;;;;;;;;;;;4.40;99.90;;;;;;2056766;28;19929;-67
2022/04/04 05:13:54;;;;;;;;;;;4.40;99.90;;;;;;2057561;28;20005;-67
2022/04/04 05:14:55;;;;;;;;;;;4.40;99.90;;;;;;2056868;28;19910;-67
2022/04/04 05:15:55;;;;;;;;;;;4.40;99.90;;;;;;2056139;28;19910;-67
2022/04/04 05:16:56;;;;;;;;;;;4.40;99.90;;;;;;2056003;28;20378;-67
2022/04/04 05:17:56;;;;;;;;;;;4.40;99.90;;;;;;2055981;28;19910;-67
2022/04/04 05:18:57;;;;;;;;;;;4.40;99.90;;;;;;2058438;28;19914;-67
2022/04/04 05:19:57;;;;;;;;;;;4.40;99.90;;;;;;2058395;28;19946;-67
2022/04/04 05:20:58;;;;;;;;;;;4.40;99.90;;;;;;2057840;28;19948;-67
2022/04/04 05:21:58;;;;;;;;;;;4.40;99.90;;;;;;2057140;28;19906;-67
2022/04/04 05:22:59;;;;;;;;;;;4.40;99.90;;;;;;2056941;28;19910;-67
2022/04/04 05:24:00;;;;;;;;;;;4.40;99.90;;;;;;2056208;28;19913;-67
2022/04/04 05:25:00;;;;;;;;;;;4.40;99.90;;;;;;2056049;28;19992;-67
2022/04/04 05:26:01;;;;;;;;;;;4.40;99.90;;;;;;2055990;28;19906;-67
2022/04/04 05:27:02;;;;;;;;;;;4.40;99.90;;;;;;2058480;28;19949;-67
2022/04/04 05:28:02;;;;;;;;;;;4.40;99.90;;;;;;2057767;28;19961;-67
2022/04/04 05:29:03;;;;;;;;;;;4.40;99.90;;;;;;2055111;28;20701;-67
2022/04/04 05:30:03;;;;;;;;;;;4.40;99.90;;;;;;2052468;28;19957;-67
2022/04/04 05:31:05;;;;;;;;;;;4.40;99.90;;;;;;2057048;28;19917;-67
2022/04/04 05:32:05;;;;;;;;;;;4.40;99.90;;;;;;2056702;28;19990;-67
2022/04/04 05:33:06;;;;;;;;;;;4.40;99.90;;;;;;2057172;28;19918;-67
2022/04/04 05:34:07;;;;;;;;;;;4.40;99.90;;;;;;2056807;28;19906;-67
2022/04/04 05:35:08;;;;;;;;;;;4.40;99.90;;;;;;2057195;28;19917;-67
2022/04/04 05:36:08;;;;;;;;;;;4.40;99.90;;;;;;2056542;28;19917;-67
2022/04/04 05:37:09;;;;;;;;;;;4.40;99.90;;;;;;2057023;28;19945;-67
2022/04/04 05:38:09;;;;;;;;;;;4.40;99.90;;;;;;2065288;28;20604;-67
2022/04/04 05:39:10;;;;;;;;;;;4.40;99.90;;;;;;2064953;28;20037;-67
2022/04/04 05:40:10;;;;;;;;;;;4.50;99.90;;;;;;2057495;28;19910;-67
2022/04/04 05:41:11;;;;;;;;;;;4.40;99.90;;;;;;2057408;28;20305;-67
2022/04/04 05:42:11;;;;;;;;;;;4.50;99.90;;;;;;2058894;28;20313;-67
2022/04/04 05:43:12;;;;;;;;;;;4.50;99.90;;;;;;2059983;28;19906;-67
2022/04/04 05:44:12;;;;;;;;;;;4.50;99.90;;;;;;2059292;28;19913;-67
2022/04/04 05:45:12;;;;;;;;;;;4.50;99.90;;;;;;2058328;28;20382;-67
2022/04/04 05:46:14;;;;;;;;;;;4.50;99.90;;;;;;2056749;28;19957;-67
2022/04/04 05:47:17;;;;;;;;;;;4.50;99.90;;;;;;2056721;28;19984;-67
2022/04/04 05:48:18;;;;;;;;;;;4.50;99.90;;;;;;2056235;28;19997;-67
2022/04/04 05:49:18;;;;;;;;;;;4.50;99.90;;;;;;2056873;28;19906;-67
2022/04/04 05:50:19;;;;;;;;;;;4.50;99.90;;;;;;2056588;28;20373;-67
2022/04/04 05:51:19;;;;;;;;;;;4.50;99.90;;;;;;2054473;28;19957;-67
2022/04/04 05:52:20;;;;;;;;;;;4.50;99.90;;;;;;2056754;28;19965;-67
2022/04/04 05:53:21;;;;;;;;;;;4.60;99.90;;;;;;2056284;28;19910;-67
2022/04/04 05:54:21;;;;;;;;;;;4.60;99.90;;;;;;2056373;28;19992;-67
2022/04/04 05:55:22;;;;;;;;;;;4.60;99.90;;;;;;2055694;28;19910;-67
2022/04/04 05:56:22;;;;;;;;;;;4.60;99.90;;;;;;2056537;28;19906;-67
2022/04/04 05:57:27;;;;;;;;;;;4.60;99.90;;;;;;2056334;28;19910;-67
2022/04/04 05:58:27;;;;;;;;;;;4.70;99.90;;;;;;2055976;28;19914;-67
2022/04/04 05:59:28;;;;;;;;;;;4.70;99.90;;;;;;2056113;28;19960;-67
2022/04/04 06:00:28;;;;;;;;;;;4.60;99.90;;;;;;2056926;28;20349;-67
2022/04/04 06:01:29;;;;;;;;;;;4.70;99.90;;;;;;2056380;28;19910;-67
2022/04/04 06:02:29;;;;;;;;;;;4.70;99.90;;;;;;2056411;28;19909;-67
2022/04/04 06:03:30;;;;;;;;;;;4.70;99.90;;;;;;2056103;28;19914;-67